sensor_id;sensor_type;location;lat;lon;timestamp;pressure;altitude;pressure_sealevel;temperature;humidity
46267;BME280;31998;48.798;15.066;2023-02-11T00:01:58;97429.91;;;-7.05;100.00
46267;BME280;31998;48.798;15.066;2023-02-11T00:04:25;97433.78;;;-7.09;100.00
46267;BME280;31998;48.798;15.066;2023-02-11T00:06:50;97428.13;;;-7.14;100.00
46267;BME280;31998;48.798;15.066;2023-02-11T00:09:16;97440.81;;;-7.00;100.00
46267;BME280;31998;48.798;15.066;2023-02-11T00:11:41;97427.19;;;-7.03;100.00
46267;BME280;31998;48.798;15.066;2023-02-11T00:14:08;97459.69;;;-6.87;100.00
46267;BME280;31998;48.798;15.066;2023-02-11T00:16:36;97431.00;;;-6.98;100.00
46267;BME280;31998;48.798;15.066;2023-02-11T00:19:02;97420.97;;;-7.12;100.00
46267;BME280;31998;48.798;15.066;2023-02-11T00:21:28;97425.22;;;-7.11;100.00
46267;BME280;31998;48.798;15.066;2023-02-11T00:23:53;97436.78;;;-7.14;100.00
46267;BME280;31998;48.798;15.066;2023-02-11T00:26:25;97429.34;;;-7.18;100.00
46267;BME280;31998;48.798;15.066;2023-02-11T00:28:51;97439.28;;;-7.02;100.00
46267;BME280;31998;48.798;15.066;2023-02-11T00:31:18;97447.53;;;-7.07;100.00
46267;BME280;31998;48.798;15.066;2023-02-11T00:33:44;97436.25;;;-7.17;100.00
46267;BME280;31998;48.798;15.066;2023-02-11T00:36:14;97439.66;;;-7.26;100.00
46267;BME280;31998;48.798;15.066;2023-02-11T00:38:44;97444.38;;;-7.30;100.00
46267;BME280;31998;48.798;15.066;2023-02-11T00:41:11;97422.72;;;-7.42;100.00
46267;BME280;31998;48.798;15.066;2023-02-11T00:43:38;97439.41;;;-7.23;100.00
46267;BME280;31998;48.798;15.066;2023-02-11T00:46:03;97436.25;;;-7.17;100.00
46267;BME280;31998;48.798;15.066;2023-02-11T00:48:29;97418.06;;;-7.19;100.00
46267;BME280;31998;48.798;15.066;2023-02-11T00:50:54;97421.06;;;-7.33;100.00
46267;BME280;31998;48.798;15.066;2023-02-11T00:53:20;97445.03;;;-7.18;100.00
46267;BME280;31998;48.798;15.066;2023-02-11T00:55:45;97434.44;;;-7.36;100.00
46267;BME280;31998;48.798;15.066;2023-02-11T00:58:10;97430.44;;;-7.50;100.00
46267;BME280;31998;48.798;15.066;2023-02-11T01:00:36;97421.88;;;-7.52;100.00
46267;BME280;31998;48.798;15.066;2023-02-11T01:03:01;97435.94;;;-7.33;100.00
46267;BME280;31998;48.798;15.066;2023-02-11T01:05:27;97410.72;;;-7.44;100.00
46267;BME280;31998;48.798;15.066;2023-02-11T01:07:53;97421.66;;;-7.29;100.00
46267;BME280;31998;48.798;15.066;2023-02-11T01:10:18;97405.38;;;-7.43;100.00
46267;BME280;31998;48.798;15.066;2023-02-11T01:12:43;97394.75;;;-7.51;100.00
46267;BME280;31998;48.798;15.066;2023-02-11T01:15:11;97414.16;;;-7.44;100.00
46267;BME280;31998;48.798;15.066;2023-02-11T01:17:38;97402.88;;;-7.54;100.00
46267;BME280;31998;48.798;15.066;2023-02-11T01:20:04;97425.47;;;-7.43;100.00
46267;BME280;31998;48.798;15.066;2023-02-11T01:22:31;97395.56;;;-7.60;100.00
46267;BME280;31998;48.798;15.066;2023-02-11T01:24:58;97405.94;;;-7.49;100.00
46267;BME280;31998;48.798;15.066;2023-02-11T01:27:24;97407.81;;;-7.51;100.00
46267;BME280;31998;48.798;15.066;2023-02-11T01:29:49;97401.78;;;-7.51;100.00
46267;BME280;31998;48.798;15.066;2023-02-11T01:32:14;97375.34;;;-7.58;100.00
46267;BME280;31998;48.798;15.066;2023-02-11T01:34:40;97376.44;;;-7.60;100.00
46267;BME280;31998;48.798;15.066;2023-02-11T01:37:05;97377.41;;;-7.61;100.00
46267;BME280;31998;48.798;15.066;2023-02-11T01:39:34;97389.38;;;-7.59;100.00
46267;BME280;31998;48.798;15.066;2023-02-11T01:42:00;97392.97;;;-7.50;100.00
46267;BME280;31998;48.798;15.066;2023-02-11T01:44:37;97389.53;;;-7.51;100.00
46267;BME280;31998;48.798;15.066;2023-02-11T01:47:03;97378.25;;;-7.51;100.00
46267;BME280;31998;48.798;15.066;2023-02-11T01:49:32;97355.41;;;-7.69;100.00
46267;BME280;31998;48.798;15.066;2023-02-11T01:52:00;97389.25;;;-7.57;100.00
46267;BME280;31998;48.798;15.066;2023-02-11T01:54:30;97388.69;;;-7.61;100.00
46267;BME280;31998;48.798;15.066;2023-02-11T01:57:17;97370.66;;;-7.74;100.00
46267;BME280;31998;48.798;15.066;2023-02-11T02:00:14;97380.59;;;-7.48;100.00
46267;BME280;31998;48.798;15.066;2023-02-11T02:03:07;97377.44;;;-7.42;100.00
46267;BME280;31998;48.798;15.066;2023-02-11T02:05:50;97336.28;;;-7.59;100.00
46267;BME280;31998;48.798;15.066;2023-02-11T02:08:30;97319.91;;;-7.52;100.00
46267;BME280;31998;48.798;15.066;2023-02-11T02:10:58;97359.69;;;-7.39;100.00
46267;BME280;31998;48.798;15.066;2023-02-11T02:13:26;97344.53;;;-7.54;100.00
46267;BME280;31998;48.798;15.066;2023-02-11T02:15:54;97347.31;;;-7.56;100.00
46267;BME280;31998;48.798;15.066;2023-02-11T02:26:51;97337.13;;;-7.49;100.00
46267;BME280;31998;48.798;15.066;2023-02-11T02:32:14;97305.88;;;-7.51;100.00
46267;BME280;31998;48.798;15.066;2023-02-11T02:37:26;97305.47;;;-7.36;100.00
46267;BME280;31998;48.798;15.066;2023-02-11T02:39:54;97306.72;;;-7.41;100.00
46267;BME280;31998;48.798;15.066;2023-02-11T02:42:21;97301.88;;;-7.45;100.00
46267;BME280;31998;48.798;15.066;2023-02-11T02:44:51;97294.34;;;-7.48;100.00
46267;BME280;31998;48.798;15.066;2023-02-11T02:47:18;97278.22;;;-7.44;100.00
46267;BME280;31998;48.798;15.066;2023-02-11T02:49:43;97284.53;;;-7.27;100.00
46267;BME280;31998;48.798;15.066;2023-02-11T02:52:34;97299.09;;;-7.05;100.00
46267;BME280;31998;48.798;15.066;2023-02-11T02:58:21;97297.16;;;-6.93;100.00
46267;BME280;31998;48.798;15.066;2023-02-11T03:12:01;97279.44;;;-6.62;100.00
46267;BME280;31998;48.798;15.066;2023-02-11T03:14:27;97267.06;;;-6.70;100.00
46267;BME280;31998;48.798;15.066;2023-02-11T03:16:56;97276.00;;;-6.63;100.00
46267;BME280;31998;48.798;15.066;2023-02-11T03:19:28;97293.91;;;-6.58;100.00
46267;BME280;31998;48.798;15.066;2023-02-11T03:21:55;97297.19;;;-6.56;100.00
46267;BME280;31998;48.798;15.066;2023-02-11T03:24:31;97295.66;;;-6.49;100.00
46267;BME280;31998;48.798;15.066;2023-02-11T03:29:43;97290.75;;;-6.24;100.00
46267;BME280;31998;48.798;15.066;2023-02-11T03:32:22;97288.34;;;-6.18;100.00
46267;BME280;31998;48.798;15.066;2023-02-11T03:34:56;97284.47;;;-6.14;100.00
46267;BME280;31998;48.798;15.066;2023-02-11T03:37:35;97285.00;;;-6.10;100.00
46267;BME280;31998;48.798;15.066;2023-02-11T03:40:10;97277.34;;;-6.21;100.00
46267;BME280;31998;48.798;15.066;2023-02-11T03:42:42;97283.63;;;-6.14;100.00
46267;BME280;31998;48.798;15.066;2023-02-11T03:45:10;97276.75;;;-6.15;100.00
46267;BME280;31998;48.798;15.066;2023-02-11T03:47:38;97274.28;;;-6.17;100.00
46267;BME280;31998;48.798;15.066;2023-02-11T03:50:09;97269.88;;;-6.16;100.00
46267;BME280;31998;48.798;15.066;2023-02-11T03:52:36;97282.22;;;-6.09;100.00
46267;BME280;31998;48.798;15.066;2023-02-11T03:55:07;97266.56;;;-6.18;100.00
46267;BME280;31998;48.798;15.066;2023-02-11T03:57:33;97251.03;;;-6.30;100.00
46267;BME280;31998;48.798;15.066;2023-02-11T03:59:59;97246.47;;;-6.28;100.00
46267;BME280;31998;48.798;15.066;2023-02-11T04:02:28;97268.50;;;-6.20;100.00
46267;BME280;31998;48.798;15.066;2023-02-11T04:04:55;97257.34;;;-6.22;100.00
46267;BME280;31998;48.798;15.066;2023-02-11T04:07:20;97257.78;;;-6.27;100.00
46267;BME280;31998;48.798;15.066;2023-02-11T04:09:46;97252.84;;;-6.30;100.00
46267;BME280;31998;48.798;15.066;2023-02-11T04:12:11;97249.69;;;-6.34;100.00
46267;BME280;31998;48.798;15.066;2023-02-11T04:14:37;97277.25;;;-6.30;100.00
46267;BME280;31998;48.798;15.066;2023-02-11T04:17:03;97273.84;;;-6.40;100.00
46267;BME280;31998;48.798;15.066;2023-02-11T04:19:29;97248.44;;;-6.57;100.00
46267;BME280;31998;48.798;15.066;2023-02-11T04:21:54;97266.19;;;-6.51;100.00
46267;BME280;31998;48.798;15.066;2023-02-11T04:24:19;97257.63;;;-6.53;100.00
46267;BME280;31998;48.798;15.066;2023-02-11T04:26:45;97272.72;;;-6.37;100.00
46267;BME280;31998;48.798;15.066;2023-02-11T04:29:10;97262.53;;;-6.40;100.00
46267;BME280;31998;48.798;15.066;2023-02-11T04:31:36;97264.31;;;-6.41;100.00
46267;BME280;31998;48.798;15.066;2023-02-11T04:34:01;97259.09;;;-6.41;100.00
46267;BME280;31998;48.798;15.066;2023-02-11T04:36:26;97254.00;;;-6.42;100.00
46267;BME280;31998;48.798;15.066;2023-02-11T04:38:52;97259.63;;;-6.37;100.00
46267;BME280;31998;48.798;15.066;2023-02-11T04:41:17;97259.34;;;-6.34;100.00
46267;BME280;31998;48.798;15.066;2023-02-11T04:43:43;97257.53;;;-6.34;100.00
46267;BME280;31998;48.798;15.066;2023-02-11T04:46:08;97241.88;;;-6.43;100.00
46267;BME280;31998;48.798;15.066;2023-02-11T04:48:33;97252.75;;;-6.38;100.00
46267;BME280;31998;48.798;15.066;2023-02-11T04:51:00;97235.28;;;-6.47;100.00
46267;BME280;31998;48.798;15.066;2023-02-11T04:53:25;97241.72;;;-6.42;100.00
46267;BME280;31998;48.798;15.066;2023-02-11T04:55:51;97235.53;;;-6.41;100.00
46267;BME280;31998;48.798;15.066;2023-02-11T04:58:17;97230.69;;;-6.36;100.00
46267;BME280;31998;48.798;15.066;2023-02-11T05:00:43;97233.22;;;-6.26;100.00
46267;BME280;31998;48.798;15.066;2023-02-11T05:03:08;97227.28;;;-6.18;100.00
46267;BME280;31998;48.798;15.066;2023-02-11T05:05:37;97227.63;;;-6.13;100.00
46267;BME280;31998;48.798;15.066;2023-02-11T05:08:03;97220.75;;;-6.14;100.00
46267;BME280;31998;48.798;15.066;2023-02-11T05:10:29;97228.41;;;-6.03;100.00
46267;BME280;31998;48.798;15.066;2023-02-11T05:12:54;97225.13;;;-6.05;100.00
46267;BME280;31998;48.798;15.066;2023-02-11T05:15:19;97212.16;;;-6.07;100.00
46267;BME280;31998;48.798;15.066;2023-02-11T05:17:45;97224.81;;;-6.02;100.00
46267;BME280;31998;48.798;15.066;2023-02-11T05:20:10;97218.97;;;-6.14;100.00
46267;BME280;31998;48.798;15.066;2023-02-11T05:22:36;97214.41;;;-6.12;100.00
46267;BME280;31998;48.798;15.066;2023-02-11T05:25:01;97217.94;;;-6.03;100.00
46267;BME280;31998;48.798;15.066;2023-02-11T05:27:27;97195.59;;;-6.07;100.00
46267;BME280;31998;48.798;15.066;2023-02-11T05:29:52;97206.19;;;-5.99;100.00
46267;BME280;31998;48.798;15.066;2023-02-11T05:32:17;97200.34;;;-5.93;100.00
46267;BME280;31998;48.798;15.066;2023-02-11T05:34:43;97204.97;;;-5.87;100.00
46267;BME280;31998;48.798;15.066;2023-02-11T05:37:08;97197.47;;;-5.82;100.00
46267;BME280;31998;48.798;15.066;2023-02-11T05:39:33;97194.94;;;-5.74;100.00
46267;BME280;31998;48.798;15.066;2023-02-11T05:41:59;97187.13;;;-5.65;100.00
46267;BME280;31998;48.798;15.066;2023-02-11T05:44:24;97189.44;;;-5.62;100.00
46267;BME280;31998;48.798;15.066;2023-02-11T05:46:50;97185.22;;;-5.55;100.00
46267;BME280;31998;48.798;15.066;2023-02-11T05:49:16;97168.66;;;-5.56;100.00
46267;BME280;31998;48.798;15.066;2023-02-11T05:51:41;97175.47;;;-5.45;100.00
46267;BME280;31998;48.798;15.066;2023-02-11T05:54:07;97145.44;;;-5.51;100.00
46267;BME280;31998;48.798;15.066;2023-02-11T05:56:33;97158.31;;;-5.39;100.00
46267;BME280;31998;48.798;15.066;2023-02-11T05:58:58;97164.38;;;-5.39;100.00
46267;BME280;31998;48.798;15.066;2023-02-11T06:01:25;97169.31;;;-5.36;100.00
46267;BME280;31998;48.798;15.066;2023-02-11T06:03:50;97161.09;;;-5.41;100.00
46267;BME280;31998;48.798;15.066;2023-02-11T06:06:16;97175.56;;;-5.29;100.00
46267;BME280;31998;48.798;15.066;2023-02-11T06:08:42;97183.81;;;-5.24;100.00
46267;BME280;31998;48.798;15.066;2023-02-11T06:11:08;97182.53;;;-5.20;100.00
46267;BME280;31998;48.798;15.066;2023-02-11T06:13:34;97169.72;;;-5.23;100.00
46267;BME280;31998;48.798;15.066;2023-02-11T06:16:01;97183.41;;;-5.11;100.00
46267;BME280;31998;48.798;15.066;2023-02-11T06:18:27;97180.63;;;-5.09;100.00
46267;BME280;31998;48.798;15.066;2023-02-11T06:20:53;97182.34;;;-5.00;100.00
46267;BME280;31998;48.798;15.066;2023-02-11T06:23:19;97175.78;;;-4.96;100.00
46267;BME280;31998;48.798;15.066;2023-02-11T06:25:45;97152.97;;;-4.96;100.00
46267;BME280;31998;48.798;15.066;2023-02-11T06:28:10;97174.53;;;-4.84;100.00
46267;BME280;31998;48.798;15.066;2023-02-11T06:30:36;97178.78;;;-4.83;100.00
46267;BME280;31998;48.798;15.066;2023-02-11T06:33:02;97181.63;;;-4.76;100.00
46267;BME280;31998;48.798;15.066;2023-02-11T06:35:28;97181.16;;;-4.72;100.00
46267;BME280;31998;48.798;15.066;2023-02-11T06:37:53;97174.63;;;-4.68;100.00
46267;BME280;31998;48.798;15.066;2023-02-11T06:40:19;97167.56;;;-4.67;100.00
46267;BME280;31998;48.798;15.066;2023-02-11T06:42:45;97181.06;;;-4.54;100.00
46267;BME280;31998;48.798;15.066;2023-02-11T06:45:10;97177.47;;;-4.53;100.00
46267;BME280;31998;48.798;15.066;2023-02-11T06:47:38;97177.66;;;-4.38;100.00
46267;BME280;31998;48.798;15.066;2023-02-11T06:50:06;97134.28;;;-4.50;100.00
46267;BME280;31998;48.798;15.066;2023-02-11T06:52:32;97158.97;;;-4.35;100.00
46267;BME280;31998;48.798;15.066;2023-02-11T06:54:59;97163.06;;;-4.32;100.00
46267;BME280;31998;48.798;15.066;2023-02-11T06:57:24;97163.59;;;-4.29;100.00
46267;BME280;31998;48.798;15.066;2023-02-11T06:59:50;97175.47;;;-4.17;100.00
46267;BME280;31998;48.798;15.066;2023-02-11T07:02:15;97178.09;;;-4.08;100.00
46267;BME280;31998;48.798;15.066;2023-02-11T07:04:41;97161.97;;;-4.14;100.00
46267;BME280;31998;48.798;15.066;2023-02-11T07:07:07;97177.63;;;-3.96;100.00
46267;BME280;31998;48.798;15.066;2023-02-11T07:09:32;97155.59;;;-3.95;100.00
46267;BME280;31998;48.798;15.066;2023-02-11T07:11:58;97130.94;;;-3.94;100.00
46267;BME280;31998;48.798;15.066;2023-02-11T07:14:23;97116.31;;;-4.04;100.00
46267;BME280;31998;48.798;15.066;2023-02-11T07:16:50;97138.03;;;-3.78;100.00
46267;BME280;31998;48.798;15.066;2023-02-11T07:19:16;97120.25;;;-3.92;100.00
46267;BME280;31998;48.798;15.066;2023-02-11T07:21:41;97142.31;;;-3.69;100.00
46267;BME280;31998;48.798;15.066;2023-02-11T07:24:10;97128.81;;;-3.58;100.00
46267;BME280;31998;48.798;15.066;2023-02-11T07:26:35;97145.22;;;-3.39;100.00
46267;BME280;31998;48.798;15.066;2023-02-11T07:29:01;97085.06;;;-3.67;100.00
46267;BME280;31998;48.798;15.066;2023-02-11T07:31:28;97123.50;;;-3.33;100.00
46267;BME280;31998;48.798;15.066;2023-02-11T07:33:57;97094.72;;;-3.35;100.00
46267;BME280;31998;48.798;15.066;2023-02-11T07:36:24;97119.84;;;-3.08;100.00
46267;BME280;31998;48.798;15.066;2023-02-11T07:38:49;97114.22;;;-2.96;100.00
46267;BME280;31998;48.798;15.066;2023-02-11T07:41:17;97135.25;;;-2.80;100.00
46267;BME280;31998;48.798;15.066;2023-02-11T07:43:43;97131.09;;;-2.66;100.00
46267;BME280;31998;48.798;15.066;2023-02-11T07:46:11;97106.81;;;-2.62;100.00
46267;BME280;31998;48.798;15.066;2023-02-11T07:48:38;97130.50;;;-2.46;100.00
46267;BME280;31998;48.798;15.066;2023-02-11T07:51:14;97125.22;;;-2.46;100.00
46267;BME280;31998;48.798;15.066;2023-02-11T07:53:40;97066.34;;;-2.61;100.00
46267;BME280;31998;48.798;15.066;2023-02-11T07:56:06;97106.66;;;-2.29;100.00
46267;BME280;31998;48.798;15.066;2023-02-11T07:58:33;97106.91;;;-2.16;100.00
46267;BME280;31998;48.798;15.066;2023-02-11T08:01:07;97052.00;;;-2.35;100.00
46267;BME280;31998;48.798;15.066;2023-02-11T08:03:34;97032.25;;;-2.39;100.00
46267;BME280;31998;48.798;15.066;2023-02-11T08:06:05;96993.59;;;-2.47;100.00
46267;BME280;31998;48.798;15.066;2023-02-11T08:08:31;97107.50;;;-1.60;100.00
46267;BME280;31998;48.798;15.066;2023-02-11T08:10:56;97123.34;;;-1.45;100.00
46267;BME280;31998;48.798;15.066;2023-02-11T08:13:22;97144.94;;;-1.04;100.00
46267;BME280;31998;48.798;15.066;2023-02-11T08:15:47;97133.75;;;-0.91;100.00
46267;BME280;31998;48.798;15.066;2023-02-11T08:18:13;97130.28;;;-0.77;100.00
46267;BME280;31998;48.798;15.066;2023-02-11T08:20:38;97109.09;;;-0.92;100.00
46267;BME280;31998;48.798;15.066;2023-02-11T08:23:05;97100.91;;;-0.82;100.00
46267;BME280;31998;48.798;15.066;2023-02-11T08:25:31;97107.47;;;-0.63;100.00
46267;BME280;31998;48.798;15.066;2023-02-11T08:27:57;97102.22;;;-0.42;100.00
46267;BME280;31998;48.798;15.066;2023-02-11T08:30:23;97086.38;;;-0.20;100.00
46267;BME280;31998;48.798;15.066;2023-02-11T08:32:50;97097.25;;;0.06;100.00
46267;BME280;31998;48.798;15.066;2023-02-11T08:35:15;97109.50;;;0.29;100.00
46267;BME280;31998;48.798;15.066;2023-02-11T08:37:41;97100.94;;;0.26;100.00
46267;BME280;31998;48.798;15.066;2023-02-11T08:40:06;97115.53;;;0.44;100.00
46267;BME280;31998;48.798;15.066;2023-02-11T08:42:32;97117.28;;;0.58;100.00
46267;BME280;31998;48.798;15.066;2023-02-11T08:44:58;97106.44;;;0.53;100.00
46267;BME280;31998;48.798;15.066;2023-02-11T08:47:23;97102.28;;;0.65;100.00
46267;BME280;31998;48.798;15.066;2023-02-11T08:49:48;97081.94;;;0.72;100.00
46267;BME280;31998;48.798;15.066;2023-02-11T08:52:14;97110.06;;;1.01;100.00
46267;BME280;31998;48.798;15.066;2023-02-11T08:54:39;97105.66;;;1.15;100.00
46267;BME280;31998;48.798;15.066;2023-02-11T08:57:05;97104.47;;;1.18;100.00
46267;BME280;31998;48.798;15.066;2023-02-11T08:59:30;97116.16;;;1.36;100.00
46267;BME280;31998;48.798;15.066;2023-02-11T09:01:56;97068.53;;;1.15;100.00
46267;BME280;31998;48.798;15.066;2023-02-11T09:04:22;97104.41;;;1.52;100.00
46267;BME280;31998;48.798;15.066;2023-02-11T09:06:47;97101.38;;;1.62;100.00
46267;BME280;31998;48.798;15.066;2023-02-11T09:09:14;97093.28;;;1.77;100.00
46267;BME280;31998;48.798;15.066;2023-02-11T09:11:41;97093.72;;;1.94;100.00
46267;BME280;31998;48.798;15.066;2023-02-11T09:14:06;97098.88;;;2.15;100.00
46267;BME280;31998;48.798;15.066;2023-02-11T09:16:34;97095.03;;;2.37;100.00
46267;BME280;31998;48.798;15.066;2023-02-11T09:19:02;97111.59;;;2.53;100.00
46267;BME280;31998;48.798;15.066;2023-02-11T09:21:28;97112.03;;;2.76;100.00
46267;BME280;31998;48.798;15.066;2023-02-11T09:23:55;97115.28;;;2.85;100.00
46267;BME280;31998;48.798;15.066;2023-02-11T09:26:25;97116.09;;;2.85;100.00
46267;BME280;31998;48.798;15.066;2023-02-11T09:28:50;97102.19;;;2.83;100.00
46267;BME280;31998;48.798;15.066;2023-02-11T09:31:21;97086.81;;;3.05;100.00
46267;BME280;31998;48.798;15.066;2023-02-11T09:33:49;97099.47;;;3.23;100.00
46267;BME280;31998;48.798;15.066;2023-02-11T09:36:17;97049.19;;;3.02;100.00
46267;BME280;31998;48.798;15.066;2023-02-11T09:38:43;97088.50;;;3.58;100.00
46267;BME280;31998;48.798;15.066;2023-02-11T09:43:48;97078.06;;;4.01;100.00
46267;BME280;31998;48.798;15.066;2023-02-11T09:46:16;97096.53;;;4.34;100.00
46267;BME280;31998;48.798;15.066;2023-02-11T09:48:44;97087.34;;;4.55;100.00
46267;BME280;31998;48.798;15.066;2023-02-11T09:51:41;97106.41;;;4.58;100.00
46267;BME280;31998;48.798;15.066;2023-02-11T09:54:16;97101.25;;;4.63;100.00
46267;BME280;31998;48.798;15.066;2023-02-11T09:56:43;97099.50;;;5.19;100.00
46267;BME280;31998;48.798;15.066;2023-02-11T09:59:13;97116.75;;;4.98;100.00
46267;BME280;31998;48.798;15.066;2023-02-11T10:01:56;97115.16;;;5.15;100.00
46267;BME280;31998;48.798;15.066;2023-02-11T10:07:36;97121.94;;;4.61;100.00
46267;BME280;31998;48.798;15.066;2023-02-11T10:24:30;97085.34;;;5.18;100.00
46267;BME280;31998;48.798;15.066;2023-02-11T10:26:55;97086.97;;;5.20;100.00
46267;BME280;31998;48.798;15.066;2023-02-11T10:29:34;97080.31;;;5.10;100.00
46267;BME280;31998;48.798;15.066;2023-02-11T10:32:04;96975.00;;;4.51;100.00
46267;BME280;31998;48.798;15.066;2023-02-11T10:34:42;97047.22;;;4.93;100.00
46267;BME280;31998;48.798;15.066;2023-02-11T10:37:11;97078.09;;;5.26;100.00
46267;BME280;31998;48.798;15.066;2023-02-11T10:39:39;97024.34;;;5.04;100.00
46267;BME280;31998;48.798;15.066;2023-02-11T10:42:09;97008.56;;;5.02;100.00
46267;BME280;31998;48.798;15.066;2023-02-11T10:44:38;97035.69;;;5.36;100.00
46267;BME280;31998;48.798;15.066;2023-02-11T10:47:19;97006.41;;;5.11;100.00
46267;BME280;31998;48.798;15.066;2023-02-11T10:49:47;97020.19;;;5.26;100.00
46267;BME280;31998;48.798;15.066;2023-02-11T10:54:55;97056.19;;;5.54;100.00
46267;BME280;31998;48.798;15.066;2023-02-11T10:57:21;97054.38;;;5.54;100.00
46267;BME280;31998;48.798;15.066;2023-02-11T10:59:57;97058.13;;;5.47;100.00
46267;BME280;31998;48.798;15.066;2023-02-11T11:02:27;97053.44;;;5.60;100.00
46267;BME280;31998;48.798;15.066;2023-02-11T11:04:58;97066.28;;;5.70;100.00
46267;BME280;31998;48.798;15.066;2023-02-11T11:07:28;97051.75;;;5.66;100.00
46267;BME280;31998;48.798;15.066;2023-02-11T11:10:05;97074.38;;;5.63;100.00
46267;BME280;31998;48.798;15.066;2023-02-11T11:12:48;97063.69;;;5.63;100.00
46267;BME280;31998;48.798;15.066;2023-02-11T11:15:17;97007.94;;;5.37;100.00
46267;BME280;31998;48.798;15.066;2023-02-11T11:17:44;97042.56;;;5.43;100.00
46267;BME280;31998;48.798;15.066;2023-02-11T11:20:32;97058.66;;;5.55;100.00
46267;BME280;31998;48.798;15.066;2023-02-11T11:23:18;97051.00;;;5.59;100.00
46267;BME280;31998;48.798;15.066;2023-02-11T11:26:05;97060.97;;;5.52;100.00
46267;BME280;31998;48.798;15.066;2023-02-11T11:28:36;97005.44;;;5.24;100.00
46267;BME280;31998;48.798;15.066;2023-02-11T11:31:04;96982.16;;;5.12;100.00
46267;BME280;31998;48.798;15.066;2023-02-11T11:33:33;97017.41;;;5.51;100.00
46267;BME280;31998;48.798;15.066;2023-02-11T11:36:08;96979.00;;;5.34;100.00
46267;BME280;31998;48.798;15.066;2023-02-11T11:38:51;96988.94;;;5.45;100.00
46267;BME280;31998;48.798;15.066;2023-02-11T11:41:31;97030.44;;;5.78;100.00
46267;BME280;31998;48.798;15.066;2023-02-11T11:46:31;97008.56;;;5.99;100.00
46267;BME280;31998;48.798;15.066;2023-02-11T11:49:03;96974.16;;;5.91;100.00
46267;BME280;31998;48.798;15.066;2023-02-11T11:51:32;97002.22;;;6.12;100.00
46267;BME280;31998;48.798;15.066;2023-02-11T11:54:05;96998.28;;;6.14;100.00
46267;BME280;31998;48.798;15.066;2023-02-11T11:56:34;96979.59;;;6.14;100.00
46267;BME280;31998;48.798;15.066;2023-02-11T11:59:10;96987.22;;;6.11;100.00
46267;BME280;31998;48.798;15.066;2023-02-11T12:15:55;96972.63;;;6.13;100.00
46267;BME280;31998;48.798;15.066;2023-02-11T12:21:48;96965.03;;;6.10;100.00
46267;BME280;31998;48.798;15.066;2023-02-11T12:27:34;96970.25;;;6.05;100.00
46267;BME280;31998;48.798;15.066;2023-02-11T12:41:36;97003.69;;;5.96;100.00
46267;BME280;31998;48.798;15.066;2023-02-11T12:53:03;97007.59;;;5.63;100.00
46267;BME280;31998;48.798;15.066;2023-02-11T12:55:42;96994.88;;;5.47;100.00
46267;BME280;31998;48.798;15.066;2023-02-11T12:58:16;97005.53;;;5.47;100.00
46267;BME280;31998;48.798;15.066;2023-02-11T13:00:50;97024.38;;;5.52;100.00
46267;BME280;31998;48.798;15.066;2023-02-11T13:03:23;97013.28;;;5.55;100.00
46267;BME280;31998;48.798;15.066;2023-02-11T13:05:53;97008.03;;;5.60;100.00
46267;BME280;31998;48.798;15.066;2023-02-11T13:08:26;97018.63;;;5.67;100.00
46267;BME280;31998;48.798;15.066;2023-02-11T13:10:58;97023.94;;;5.55;100.00
46267;BME280;31998;48.798;15.066;2023-02-11T13:13:37;96990.16;;;5.31;100.00
46267;BME280;31998;48.798;15.066;2023-02-11T13:16:40;97015.28;;;5.41;100.00
46267;BME280;31998;48.798;15.066;2023-02-11T13:19:17;97013.22;;;5.43;100.00
46267;BME280;31998;48.798;15.066;2023-02-11T13:22:21;97024.13;;;5.42;100.00
46267;BME280;31998;48.798;15.066;2023-02-11T13:27:39;97012.69;;;5.35;100.00
46267;BME280;31998;48.798;15.066;2023-02-11T13:30:32;97022.47;;;5.41;100.00
46267;BME280;31998;48.798;15.066;2023-02-11T13:37:56;96993.88;;;4.93;100.00
46267;BME280;31998;48.798;15.066;2023-02-11T13:40:33;97020.41;;;5.06;100.00
46267;BME280;31998;48.798;15.066;2023-02-11T13:43:02;96966.44;;;4.68;100.00
46267;BME280;31998;48.798;15.066;2023-02-11T13:45:41;97017.38;;;5.03;100.00
46267;BME280;31998;48.798;15.066;2023-02-11T13:48:36;97018.31;;;5.08;100.00
46267;BME280;31998;48.798;15.066;2023-02-11T13:51:12;97002.44;;;4.95;100.00
46267;BME280;31998;48.798;15.066;2023-02-11T13:53:52;97002.91;;;4.92;100.00
46267;BME280;31998;48.798;15.066;2023-02-11T13:56:37;96991.09;;;4.81;100.00
46267;BME280;31998;48.798;15.066;2023-02-11T13:59:06;97007.03;;;4.88;100.00
46267;BME280;31998;48.798;15.066;2023-02-11T14:16:17;96981.13;;;4.77;100.00
46267;BME280;31998;48.798;15.066;2023-02-11T14:21:21;96951.13;;;4.63;100.00
46267;BME280;31998;48.798;15.066;2023-02-11T14:23:48;96975.91;;;4.82;100.00
46267;BME280;31998;48.798;15.066;2023-02-11T14:31:40;96989.38;;;4.69;100.00
46267;BME280;31998;48.798;15.066;2023-02-11T14:36:57;96986.28;;;4.72;100.00
46267;BME280;31998;48.798;15.066;2023-02-11T14:39:39;96990.44;;;4.68;100.00
46267;BME280;31998;48.798;15.066;2023-02-11T14:42:17;96976.94;;;4.62;100.00
46267;BME280;31998;48.798;15.066;2023-02-11T14:44:45;96978.13;;;4.67;100.00
46267;BME280;31998;48.798;15.066;2023-02-11T14:50:06;96990.56;;;4.54;100.00
46267;BME280;31998;48.798;15.066;2023-02-11T14:52:38;96985.72;;;4.45;100.00
46267;BME280;31998;48.798;15.066;2023-02-11T14:57:41;96997.31;;;4.57;100.00
46267;BME280;31998;48.798;15.066;2023-02-11T15:00:21;96987.72;;;4.49;100.00
46267;BME280;31998;48.798;15.066;2023-02-11T15:02:47;97000.47;;;4.47;100.00
46267;BME280;31998;48.798;15.066;2023-02-11T15:05:24;96997.22;;;4.45;100.00
46267;BME280;31998;48.798;15.066;2023-02-11T15:07:58;97005.78;;;4.47;100.00
46267;BME280;31998;48.798;15.066;2023-02-11T15:10:32;97018.84;;;4.55;100.00